Time,TemperatureF,DewpointF,PressureIn,WindDirection,WindDirectionDegrees,WindSpeedMPH,WindSpeedGustMPH,Humidity,HourlyPrecipIn,Conditions,Clouds,dailyrainin,SoftwareType,DateUTC
2013-03-08 00:01:00,34.0,28.0,30.32,SE,134,6.0,17.0,80,0.00,,,0.00,,2013-03-08 06:01:00,
2013-03-08 00:11:00,34.0,28.0,30.32,SE,134,6.0,17.0,80,0.00,,,0.00,,2013-03-08 06:11:00,
2013-03-08 00:21:00,34.0,28.0,30.32,SE,146,6.0,10.0,80,0.00,,,0.00,,2013-03-08 06:21:00,
2013-03-08 00:32:00,33.0,28.0,30.32,SE,135,5.0,9.0,81,0.00,,,0.00,,2013-03-08 06:32:00,
2013-03-08 00:42:00,33.0,28.0,30.32,SE,135,5.0,9.0,81,0.00,,,0.00,,2013-03-08 06:42:00,
2013-03-08 00:51:00,33.0,28.0,30.32,SE,135,5.0,11.0,81,0.00,,,0.00,,2013-03-08 06:51:00,
2013-03-08 01:01:00,33.0,28.0,30.33,SE,134,4.0,10.0,82,0.00,,,0.00,,2013-03-08 07:01:00,
2013-03-08 01:11:00,33.0,28.0,30.33,SE,134,4.0,10.0,82,0.00,,,0.00,,2013-03-08 07:11:00,
2013-03-08 01:22:00,33.0,28.0,30.32,ESE,120,5.0,10.0,82,0.00,,,0.00,,2013-03-08 07:22:00,
2013-03-08 01:32:00,32.0,27.0,30.33,SE,136,5.0,8.0,83,0.00,,,0.00,,2013-03-08 07:32:00,
2013-03-08 01:42:00,32.0,27.0,30.33,SE,136,5.0,8.0,83,0.00,,,0.00,,2013-03-08 07:42:00,
2013-03-08 01:51:00,32.0,27.0,30.34,ESE,113,4.0,8.0,83,0.00,,,0.00,,2013-03-08 07:51:00,
2013-03-08 02:01:00,32.0,27.0,30.35,SE,131,4.0,10.0,83,0.00,,,0.00,,2013-03-08 08:01:00,
2013-03-08 02:11:00,32.0,27.0,30.35,SE,131,4.0,10.0,83,0.00,,,0.00,,2013-03-08 08:11:00,
2013-03-08 02:21:00,32.0,27.0,30.35,SE,143,3.0,11.0,83,0.00,,,0.00,,2013-03-08 08:21:00,
2013-03-08 02:32:00,32.0,27.0,30.35,SE,142,4.0,9.0,83,0.00,,,0.00,,2013-03-08 08:32:00,
2013-03-08 02:41:00,32.0,27.0,30.35,SE,142,4.0,9.0,83,0.00,,,0.00,,2013-03-08 08:41:00,
2013-03-08 02:52:00,32.0,28.0,30.35,ESE,117,3.0,7.0,84,0.00,,,0.00,,2013-03-08 08:52:00,
2013-03-08 03:03:00,31.0,27.0,30.34,ESE,113,2.0,7.0,84,0.00,,,0.00,,2013-03-08 09:03:00,
2013-03-08 03:11:00,31.0,27.0,30.34,ESE,113,2.0,7.0,84,0.00,,,0.00,,2013-03-08 09:11:00,
2013-03-08 03:21:00,31.0,27.0,30.34,ESE,113,3.0,7.0,84,0.00,,,0.00,,2013-03-08 09:21:00,
2013-03-08 03:32:00,31.0,27.0,30.33,SSE,154,3.0,5.0,85,0.00,,,0.00,,2013-03-08 09:32:00,
2013-03-08 03:42:00,31.0,27.0,30.33,SSE,154,3.0,5.0,85,0.00,,,0.00,,2013-03-08 09:42:00,
2013-03-08 03:52:00,31.0,27.0,30.34,SE,130,2.0,5.0,85,0.00,,,0.00,,2013-03-08 09:52:00,
2013-03-08 04:01:00,31.0,27.0,30.35,SE,144,1.0,5.0,85,0.00,,,0.00,,2013-03-08 10:01:00,
2013-03-08 04:11:00,31.0,27.0,30.35,SE,144,1.0,5.0,85,0.00,,,0.00,,2013-03-08 10:11:00,
2013-03-08 04:21:00,31.0,27.0,30.35,SE,144,3.0,7.0,85,0.00,,,0.00,,2013-03-08 10:21:00,
2013-03-08 04:32:00,31.0,27.0,30.35,SE,145,2.0,4.0,85,0.00,,,0.00,,2013-03-08 10:32:00,
2013-03-08 04:41:00,31.0,27.0,30.35,SE,145,2.0,4.0,85,0.00,,,0.00,,2013-03-08 10:41:00,
2013-03-08 04:51:00,31.0,27.0,30.34,ESE,116,3.0,5.0,85,0.00,,,0.00,,2013-03-08 10:51:00,
2013-03-08 05:01:00,31.0,27.0,30.35,SE,137,1.0,5.0,85,0.00,,,0.00,,2013-03-08 11:01:00,
2013-03-08 05:11:00,31.0,27.0,30.35,SE,137,1.0,5.0,85,0.00,,,0.00,,2013-03-08 11:11:00,
2013-03-08 05:21:00,31.0,27.0,30.35,ESE,116,4.0,7.0,85,0.00,,,0.00,,2013-03-08 11:21:00,
2013-03-08 05:32:00,31.0,27.0,30.35,SSE,148,4.0,8.0,85,0.00,,,0.00,,2013-03-08 11:32:00,
2013-03-08 05:42:00,31.0,27.0,30.35,SSE,148,4.0,8.0,85,0.00,,,0.00,,2013-03-08 11:42:00,
2013-03-08 05:52:00,31.0,27.0,30.36,SE,144,4.0,8.0,85,0.00,,,0.00,,2013-03-08 11:52:00,
2013-03-08 06:02:00,31.0,27.0,30.36,SE,131,2.0,8.0,85,0.00,,,0.00,,2013-03-08 12:02:00,
2013-03-08 06:11:00,31.0,27.0,30.36,SE,131,2.0,8.0,85,0.00,,,0.00,,2013-03-08 12:11:00,
2013-03-08 06:22:00,30.0,26.0,30.36,SE,127,3.0,10.0,85,0.00,,,0.00,,2013-03-08 12:22:00,
2013-03-08 06:32:00,30.0,28.0,30.35,SE,127,3.0,6.0,92,0.00,,,0.00,,2013-03-08 12:32:00,
2013-03-08 06:43:00,30.0,28.0,30.35,SE,127,3.0,6.0,92,0.00,,,0.00,,2013-03-08 12:43:00,
2013-03-08 06:52:00,30.0,26.0,30.35,ESE,109,4.0,8.0,86,0.00,,,0.00,,2013-03-08 12:52:00,
2013-03-08 07:01:00,30.0,26.0,30.35,ESE,113,4.0,9.0,86,0.00,,,0.00,,2013-03-08 13:01:00,
2013-03-08 07:11:00,30.0,26.0,30.35,ESE,113,4.0,9.0,86,0.00,,,0.00,,2013-03-08 13:11:00,
2013-03-08 07:21:00,31.0,27.0,30.35,SE,135,4.0,11.0,86,0.00,,,0.00,,2013-03-08 13:21:00,
2013-03-08 07:32:00,32.0,28.0,30.35,ESE,111,4.0,9.0,84,0.00,,,0.00,,2013-03-08 13:32:00,
2013-03-08 07:42:00,32.0,28.0,30.35,ESE,111,4.0,9.0,84,0.00,,,0.00,,2013-03-08 13:42:00,
2013-03-08 07:52:00,32.0,27.0,30.35,SSE,152,6.0,15.0,83,0.00,,,0.00,,2013-03-08 13:52:00,
2013-03-08 08:02:00,33.0,28.0,30.36,SE,136,5.0,13.0,81,0.00,,,0.00,,2013-03-08 14:02:00,
2013-03-08 08:11:00,33.0,28.0,30.36,SE,136,5.0,13.0,81,0.00,,,0.00,,2013-03-08 14:11:00,
2013-03-08 08:22:00,34.0,28.0,30.37,SSE,155,6.0,12.0,80,0.00,,,0.00,,2013-03-08 14:22:00,
2013-03-08 08:32:00,34.0,28.0,30.38,SE,129,8.0,14.0,79,0.00,,,0.00,,2013-03-08 14:32:00,
2013-03-08 08:42:00,34.0,28.0,30.38,SE,129,8.0,14.0,79,0.00,,,0.00,,2013-03-08 14:42:00,
2013-03-08 08:52:00,35.0,29.0,30.39,SE,130,4.0,13.0,79,0.00,,,0.00,,2013-03-08 14:52:00,
2013-03-08 09:03:00,36.0,29.0,30.38,SE,134,6.0,17.0,75,0.00,,,0.00,,2013-03-08 15:03:00,
2013-03-08 09:11:00,37.0,29.0,30.39,SE,142,7.0,16.0,74,0.00,,,0.00,,2013-03-08 15:11:00,
2013-03-08 09:22:00,37.0,29.0,30.39,SE,142,7.0,16.0,74,0.00,,,0.00,,2013-03-08 15:22:00,
2013-03-08 09:32:00,38.0,30.0,30.38,SE,130,8.0,13.0,72,0.00,,,0.00,,2013-03-08 15:32:00,
2013-03-08 09:42:00,38.0,30.0,30.38,SE,130,8.0,13.0,72,0.00,,,0.00,,2013-03-08 15:42:00,
2013-03-08 09:53:00,39.0,31.0,30.38,South,169,7.0,11.0,72,0.00,,,0.00,,2013-03-08 15:53:00,
2013-03-08 10:01:00,39.0,30.0,30.37,SE,146,4.0,12.0,71,0.00,,,0.00,,2013-03-08 16:01:00,
2013-03-08 10:11:00,39.0,30.0,30.37,SE,146,4.0,12.0,71,0.00,,,0.00,,2013-03-08 16:11:00,
2013-03-08 10:21:00,40.0,31.0,30.37,East,94,7.0,13.0,69,0.00,,,0.00,,2013-03-08 16:21:00,
2013-03-08 10:32:00,41.0,31.0,30.38,SE,134,10.0,16.0,68,0.00,,,0.00,,2013-03-08 16:32:00,
2013-03-08 10:42:00,41.0,31.0,30.38,SE,134,10.0,16.0,68,0.00,,,0.00,,2013-03-08 16:42:00,
2013-03-08 10:52:00,41.0,32.0,30.38,SE,140,7.0,13.0,69,0.00,,,0.00,,2013-03-08 16:52:00,
2013-03-08 11:02:00,42.0,32.0,30.36,East,81,8.0,13.0,68,0.00,,,0.00,,2013-03-08 17:02:00,
2013-03-08 11:11:00,42.0,32.0,30.36,East,81,8.0,13.0,68,0.00,,,0.00,,2013-03-08 17:11:00,
2013-03-08 11:21:00,42.0,32.0,30.35,SE,129,10.0,17.0,67,0.00,,,0.00,,2013-03-08 17:21:00,
2013-03-08 11:32:00,44.0,33.0,30.34,SE,144,8.0,13.0,65,0.00,,,0.00,,2013-03-08 17:32:00,
2013-03-08 11:42:00,44.0,33.0,30.34,SE,144,8.0,13.0,65,0.00,,,0.00,,2013-03-08 17:42:00,
2013-03-08 11:52:00,45.0,34.0,30.34,East,86,5.0,10.0,64,0.00,,,0.00,,2013-03-08 17:52:00,
2013-03-08 12:02:00,45.0,33.0,30.33,ENE,74,9.0,14.0,63,0.00,,,0.00,,2013-03-08 18:02:00,
2013-03-08 12:11:00,45.0,33.0,30.33,ENE,74,9.0,14.0,63,0.00,,,0.00,,2013-03-08 18:11:00,
2013-03-08 12:21:00,46.0,33.0,30.32,SSE,147,8.0,13.0,61,0.00,,,0.00,,2013-03-08 18:21:00,
2013-03-08 12:32:00,46.0,34.0,30.30,SE,134,6.0,14.0,62,0.00,,,0.00,,2013-03-08 18:32:00,
2013-03-08 12:42:00,46.0,34.0,30.30,SE,134,6.0,14.0,62,0.00,,,0.00,,2013-03-08 18:42:00,
2013-03-08 12:52:00,46.0,33.0,30.30,ESE,117,8.0,14.0,60,0.00,,,0.00,,2013-03-08 18:52:00,
2013-03-08 13:01:00,48.0,34.0,30.29,South,172,9.0,14.0,57,0.00,,,0.00,,2013-03-08 19:01:00,
2013-03-08 13:11:00,48.0,34.0,30.29,South,172,9.0,14.0,57,0.00,,,0.00,,2013-03-08 19:11:00,
2013-03-08 13:22:00,48.0,34.0,30.28,SE,124,6.0,11.0,57,0.00,,,0.00,,2013-03-08 19:22:00,
2013-03-08 13:32:00,49.0,35.0,30.28,SSE,148,6.0,13.0,59,0.00,,,0.00,,2013-03-08 19:32:00,
2013-03-08 13:41:00,49.0,35.0,30.28,SSE,148,6.0,13.0,59,0.00,,,0.00,,2013-03-08 19:41:00,
2013-03-08 13:52:00,49.0,34.0,30.27,ESE,109,8.0,13.0,55,0.00,,,0.00,,2013-03-08 19:52:00,
2013-03-08 14:01:00,49.0,33.0,30.26,SE,141,6.0,13.0,54,0.00,,,0.00,,2013-03-08 20:01:00,
2013-03-08 14:11:00,49.0,33.0,30.26,SE,141,6.0,13.0,54,0.00,,,0.00,,2013-03-08 20:11:00,
2013-03-08 14:21:00,50.0,33.0,30.26,ESE,119,8.0,12.0,52,0.00,,,0.00,,2013-03-08 20:21:00,
2013-03-08 14:32:00,50.0,33.0,30.26,SE,142,10.0,15.0,52,0.00,,,0.00,,2013-03-08 20:32:00,
2013-03-08 14:42:00,50.0,33.0,30.26,SE,142,10.0,15.0,52,0.00,,,0.00,,2013-03-08 20:42:00,
2013-03-08 14:52:00,50.0,33.0,30.26,SE,142,7.0,13.0,52,0.00,,,0.00,,2013-03-08 20:52:00,
2013-03-08 15:02:00,51.0,34.0,30.25,SE,134,6.0,15.0,52,0.00,,,0.00,,2013-03-08 21:02:00,
2013-03-08 15:11:00,51.0,34.0,30.25,SE,134,6.0,15.0,52,0.00,,,0.00,,2013-03-08 21:11:00,
2013-03-08 15:21:00,51.0,34.0,30.26,SSE,165,6.0,11.0,52,0.00,,,0.00,,2013-03-08 21:21:00,
2013-03-08 15:32:00,51.0,34.0,30.25,SSE,166,4.0,12.0,52,0.00,,,0.00,,2013-03-08 21:32:00,
2013-03-08 15:42:00,51.0,34.0,30.25,SSE,166,4.0,12.0,52,0.00,,,0.00,,2013-03-08 21:42:00,
2013-03-08 15:52:00,52.0,34.0,30.25,SE,134,7.0,11.0,50,0.00,,,0.00,,2013-03-08 21:52:00,
2013-03-08 16:01:00,51.0,33.0,30.24,SE,143,7.0,18.0,50,0.00,,,0.00,,2013-03-08 22:01:00,
2013-03-08 16:11:00,51.0,33.0,30.24,SE,143,7.0,18.0,50,0.00,,,0.00,,2013-03-08 22:11:00,
2013-03-08 16:22:00,51.0,33.0,30.24,SSE,165,6.0,12.0,50,0.00,,,0.00,,2013-03-08 22:22:00,
2013-03-08 16:32:00,51.0,33.0,30.23,SE,142,7.0,14.0,49,0.00,,,0.00,,2013-03-08 22:32:00,
2013-03-08 16:42:00,51.0,33.0,30.23,SE,142,7.0,14.0,49,0.00,,,0.00,,2013-03-08 22:42:00,
2013-03-08 16:52:00,51.0,33.0,30.23,SSE,153,6.0,15.0,50,0.00,,,0.00,,2013-03-08 22:52:00,
2013-03-08 17:01:00,51.0,32.0,30.23,SSE,157,7.0,11.0,48,0.00,,,0.00,,2013-03-08 23:01:00,
2013-03-08 17:12:00,51.0,32.0,30.23,SSE,157,7.0,11.0,48,0.00,,,0.00,,2013-03-08 23:12:00,
2013-03-08 17:21:00,50.0,31.0,30.23,SSE,147,3.0,10.0,48,0.00,,,0.00,,2013-03-08 23:21:00,
2013-03-08 17:32:00,50.0,32.0,30.23,ESE,117,8.0,14.0,49,0.00,,,0.00,,2013-03-08 23:32:00,
2013-03-08 17:42:00,50.0,32.0,30.23,ESE,117,8.0,14.0,49,0.00,,,0.00,,2013-03-08 23:42:00,
2013-03-08 17:52:00,50.0,32.0,30.22,SE,130,9.0,16.0,50,0.00,,,0.00,,2013-03-08 23:52:00,
2013-03-08 18:02:00,50.0,33.0,30.22,SE,137,8.0,12.0,51,0.00,,,0.00,,2013-03-09 00:02:00,
2013-03-08 18:11:00,50.0,33.0,30.22,SE,137,8.0,12.0,51,0.00,,,0.00,,2013-03-09 00:11:00,
2013-03-08 18:22:00,50.0,33.0,30.22,SE,140,5.0,12.0,51,0.00,,,0.00,,2013-03-09 00:22:00,
2013-03-08 18:32:00,49.0,33.0,30.22,SE,126,5.0,10.0,54,0.00,,,0.00,,2013-03-09 00:32:00,
2013-03-08 18:42:00,49.0,33.0,30.22,SE,126,5.0,10.0,54,0.00,,,0.00,,2013-03-09 00:42:00,
2013-03-08 18:52:00,49.0,34.0,30.22,SE,134,6.0,11.0,55,0.00,,,0.00,,2013-03-09 00:52:00,
2013-03-08 19:01:00,49.0,34.0,30.22,ESE,110,5.0,10.0,56,0.00,,,0.00,,2013-03-09 01:01:00,
2013-03-08 19:12:00,49.0,34.0,30.22,ESE,113,4.0,13.0,56,0.00,,,0.00,,2013-03-09 01:12:00,
2013-03-08 19:21:00,49.0,34.0,30.22,ESE,113,4.0,13.0,56,0.00,,,0.00,,2013-03-09 01:21:00,
2013-03-08 19:32:00,48.0,34.0,30.21,SE,126,4.0,11.0,58,0.00,,,0.00,,2013-03-09 01:32:00,
2013-03-08 19:42:00,48.0,34.0,30.21,SE,126,4.0,11.0,58,0.00,,,0.00,,2013-03-09 01:42:00,
2013-03-08 19:51:00,48.0,34.0,30.21,SE,126,6.0,10.0,58,0.00,,,0.00,,2013-03-09 01:51:00,
2013-03-08 20:01:00,48.0,34.0,30.21,ESE,113,6.0,11.0,58,0.00,,,0.00,,2013-03-09 02:01:00,
2013-03-08 20:11:00,48.0,34.0,30.21,ESE,113,6.0,11.0,58,0.00,,,0.00,,2013-03-09 02:11:00,
2013-03-08 20:21:00,48.0,34.0,30.21,ESE,123,6.0,15.0,58,0.00,,,0.00,,2013-03-09 02:21:00,
2013-03-08 20:31:00,47.0,33.0,30.22,SE,134,7.0,11.0,59,0.00,,,0.00,,2013-03-09 02:31:00,
2013-03-08 20:41:00,47.0,33.0,30.22,ESE,105,6.0,15.0,58,0.00,,,0.00,,2013-03-09 02:41:00,
2013-03-08 20:51:00,47.0,33.0,30.22,ESE,105,6.0,15.0,58,0.00,,,0.00,,2013-03-09 02:51:00,
2013-03-08 21:01:00,47.0,33.0,30.20,East,98,8.0,12.0,58,0.00,,,0.00,,2013-03-09 03:01:00,
2013-03-08 21:11:00,47.0,33.0,30.20,East,98,8.0,12.0,58,0.00,,,0.00,,2013-03-09 03:11:00,
2013-03-08 21:21:00,47.0,33.0,30.21,ESE,116,6.0,13.0,57,0.00,,,0.00,,2013-03-09 03:21:00,
2013-03-08 21:31:00,47.0,32.0,30.21,SE,124,6.0,11.0,56,0.00,,,0.00,,2013-03-09 03:31:00,
2013-03-08 21:41:00,47.0,32.0,30.21,SE,124,6.0,11.0,56,0.00,,,0.00,,2013-03-09 03:41:00,
2013-03-08 21:52:00,47.0,32.0,30.21,SE,133,8.0,12.0,55,0.00,,,0.00,,2013-03-09 03:52:00,
2013-03-08 22:01:00,47.0,32.0,30.22,SSE,151,7.0,13.0,55,0.00,,,0.00,,2013-03-09 04:01:00,
2013-03-08 22:11:00,47.0,32.0,30.22,SSE,151,7.0,13.0,55,0.00,,,0.00,,2013-03-09 04:11:00,
2013-03-08 22:22:00,47.0,32.0,30.22,SE,126,6.0,12.0,56,0.00,,,0.00,,2013-03-09 04:22:00,
2013-03-08 22:32:00,46.0,32.0,30.20,SSE,148,7.0,16.0,57,0.00,,,0.00,,2013-03-09 04:32:00,
2013-03-08 22:41:00,46.0,32.0,30.20,SSE,148,7.0,16.0,57,0.00,,,0.00,,2013-03-09 04:41:00,
2013-03-08 22:51:00,46.0,32.0,30.20,SSE,150,8.0,15.0,57,0.00,,,0.00,,2013-03-09 04:51:00,
2013-03-08 23:02:00,46.0,32.0,30.19,ESE,117,9.0,16.0,58,0.00,,,0.00,,2013-03-09 05:02:00,
2013-03-08 23:12:00,46.0,32.0,30.19,ESE,117,9.0,16.0,58,0.00,,,0.00,,2013-03-09 05:12:00,
2013-03-08 23:22:00,46.0,32.0,30.18,SSE,147,9.0,18.0,58,0.00,,,0.00,,2013-03-09 05:22:00,
2013-03-08 23:32:00,46.0,32.0,30.18,ESE,121,8.0,12.0,59,0.00,,,0.00,,2013-03-09 05:32:00,
2013-03-08 23:42:00,46.0,32.0,30.18,ESE,121,8.0,12.0,59,0.00,,,0.00,,2013-03-09 05:42:00,
2013-03-08 23:52:00,46.0,33.0,30.18,SSE,161,7.0,12.0,61,0.00,,,0.00,,2013-03-09 05:52:00,